createdAt,value
2018-03-06T00:00:46.525Z,96597.44
2018-03-06T00:03:17.591Z,96603.79
2018-03-06T00:05:49.104Z,96600.97
2018-03-06T00:08:20.593Z,96600.88
2018-03-06T00:10:52.164Z,96600.05
2018-03-06T00:13:24.237Z,96600.13
2018-03-06T00:15:59.498Z,96594.34
2018-03-06T00:18:30.672Z,96594.27
2018-03-06T00:21:03.075Z,96599.76
2018-03-06T00:23:34.405Z,96592.75
2018-03-06T00:26:07.557Z,96597.64
2018-03-06T00:28:39.681Z,96594.55
2018-03-06T00:31:11.112Z,96589.62
2018-03-06T00:33:43.361Z,96584.78
2018-03-06T00:36:14.592Z,96593.91
2018-03-06T00:38:45.893Z,96592.77
2018-03-06T00:41:17.832Z,96585.33
2018-03-06T00:43:49.517Z,96577.50
2018-03-06T00:46:20.872Z,96575.95
2018-03-06T00:48:52.580Z,96580.95
2018-03-06T00:51:24.787Z,96574.73
2018-03-06T00:53:56.809Z,96571.59
2018-03-06T00:56:28.856Z,96570.81
2018-03-06T00:59:00.626Z,96575.87
2018-03-06T01:01:32.564Z,96573.53
2018-03-06T01:04:12.268Z,96574.91
2018-03-06T01:06:44.249Z,96566.26
2018-03-06T01:09:16.452Z,96570.38
2018-03-06T01:11:47.640Z,96566.25
2018-03-06T01:14:19.548Z,96563.05
2018-03-06T01:16:50.716Z,96561.63
2018-03-06T01:19:22.451Z,96553.70
2018-03-06T01:21:53.691Z,96559.62
2018-03-06T01:24:25.469Z,96552.97
2018-03-06T01:26:57.050Z,96556.17
2018-03-06T01:29:28.605Z,96550.48
2018-03-06T01:32:00.170Z,96545.53
2018-03-06T01:34:32.178Z,96538.16
2018-03-06T01:37:05.724Z,96526.77
2018-03-06T01:39:37.355Z,96526.38
2018-03-06T01:42:08.661Z,96522.88
2018-03-06T01:44:39.759Z,96522.98
2018-03-06T01:47:11.596Z,96519.59
2018-03-06T01:49:43.112Z,96523.79
2018-03-06T01:52:14.912Z,96517.02
2018-03-06T01:54:46.088Z,96512.55
2018-03-06T01:59:58.793Z,96506.99
2018-03-06T02:02:30.352Z,96508.30
2018-03-06T02:05:02.896Z,96504.73
2018-03-06T02:07:34.460Z,96495.60
2018-03-06T02:12:37.868Z,96497.34
2018-03-06T02:15:09.370Z,96489.13
2018-03-06T02:17:41.348Z,96488.94
2018-03-06T02:20:13.045Z,96480.89
2018-03-06T02:22:44.642Z,96482.59
2018-03-06T02:25:15.673Z,96477.73
2018-03-06T02:27:47.254Z,96479.44
2018-03-06T02:30:18.409Z,96477.80
2018-03-06T02:32:50.162Z,96479.70
2018-03-06T02:35:21.600Z,96476.89
2018-03-06T02:37:57.067Z,96477.68
2018-03-06T02:40:32.004Z,96470.84
2018-03-06T02:43:04.295Z,96473.84
2018-03-06T02:45:36.391Z,96466.48
2018-03-06T02:48:08.192Z,96466.34
2018-03-06T02:50:39.628Z,96459.34
2018-03-06T02:53:11.328Z,96461.30
2018-03-06T02:55:42.817Z,96455.66
2018-03-06T02:58:14.482Z,96458.03
2018-03-06T03:00:51.739Z,96452.42
2018-03-06T03:03:23.018Z,96461.73
2018-03-06T03:05:54.367Z,96459.36
2018-03-06T03:08:25.789Z,96455.11
2018-03-06T03:10:57.208Z,96459.17
2018-03-06T03:13:29.039Z,96456.08
2018-03-06T03:16:01.711Z,96448.79
2018-03-06T03:18:33.329Z,96446.88
2018-03-06T03:21:05.385Z,96446.07
2018-03-06T03:23:36.904Z,96448.00
2018-03-06T03:26:08.574Z,96449.45
2018-03-06T03:28:41.020Z,96455.33
2018-03-06T03:31:12.333Z,96458.55
2018-03-06T03:33:43.840Z,96455.47
2018-03-06T03:36:15.287Z,96451.52
2018-03-06T03:38:46.852Z,96451.94
2018-03-06T03:41:18.360Z,96453.45
2018-03-06T03:44:01.277Z,96451.94
2018-03-06T03:46:33.080Z,96446.63
2018-03-06T03:49:05.970Z,96441.88
2018-03-06T03:51:37.929Z,96434.75
2018-03-06T03:54:09.260Z,96437.30
2018-03-06T03:56:40.696Z,96427.44
2018-03-06T03:59:11.748Z,96427.77
2018-03-06T04:01:43.161Z,96429.34
2018-03-06T04:04:18.785Z,96432.45
2018-03-06T04:06:50.640Z,96434.09
2018-03-06T04:09:23.034Z,96429.71
2018-03-06T04:11:54.352Z,96432.93
2018-03-06T04:14:26.723Z,96433.69
2018-03-06T04:16:58.136Z,96431.34
2018-03-06T04:19:30.196Z,96422.78
2018-03-06T04:22:02.693Z,96424.83
2018-03-06T04:24:33.924Z,96427.63
2018-03-06T04:27:05.900Z,96424.83
2018-03-06T04:29:37.424Z,96420.50
2018-03-06T04:32:08.764Z,96416.08
2018-03-06T04:34:40.223Z,96417.39
2018-03-06T04:37:34.649Z,96414.33
2018-03-06T04:40:07.185Z,96414.94
2018-03-06T04:42:39.188Z,96411.22
2018-03-06T04:45:12.510Z,96408.38
2018-03-06T04:47:44.720Z,96401.71
2018-03-06T04:50:16.020Z,96407.02
2018-03-06T04:52:47.752Z,96410.10
2018-03-06T04:55:21.428Z,96410.65
2018-03-06T04:57:53.372Z,96407.88
2018-03-06T05:00:25.005Z,96409.09
2018-03-06T05:02:56.656Z,96406.95
2018-03-06T05:05:28.375Z,96399.77
2018-03-06T05:08:00.025Z,96399.03
2018-03-06T05:10:40.034Z,96398.92
2018-03-06T05:13:11.723Z,96396.92
2018-03-06T05:15:44.156Z,96396.45
2018-03-06T05:18:16.385Z,96389.87
2018-03-06T05:21:02.960Z,96388.69
2018-03-06T05:23:34.526Z,96383.28
2018-03-06T05:26:08.125Z,96388.34
2018-03-06T05:28:39.851Z,96398.20
2018-03-06T05:31:11.508Z,96397.16
2018-03-06T05:33:43.268Z,96395.86
2018-03-06T05:36:14.526Z,96396.41
2018-03-06T05:38:45.931Z,96394.88
2018-03-06T05:41:18.091Z,96393.84
2018-03-06T05:43:49.734Z,96395.72
2018-03-06T05:46:21.179Z,96395.65
2018-03-06T05:48:51.996Z,96395.75
2018-03-06T05:51:23.844Z,96400.71
2018-03-06T05:53:55.381Z,96398.88
2018-03-06T05:56:26.173Z,96401.03
2018-03-06T05:58:58.520Z,96397.13
2018-03-06T06:01:29.422Z,96394.61
2018-03-06T06:04:03.100Z,96397.16
2018-03-06T06:06:34.699Z,96399.58
2018-03-06T06:09:09.040Z,96398.94
2018-03-06T06:11:39.876Z,96397.59
2018-03-06T06:14:10.934Z,96396.43
2018-03-06T06:16:42.188Z,96398.39
2018-03-06T06:19:12.946Z,96400.58
2018-03-06T06:21:44.977Z,96394.63
2018-03-06T06:24:16.600Z,96402.89
2018-03-06T06:26:47.453Z,96397.50
2018-03-06T06:31:57.802Z,96407.48
2018-03-06T06:34:28.664Z,96400.41
2018-03-06T06:37:00.369Z,96404.26
2018-03-06T06:39:31.271Z,96402.17
2018-03-06T06:42:03.264Z,96403.59
2018-03-06T06:44:35.109Z,96404.30
2018-03-06T06:47:07.077Z,96400.98
2018-03-06T06:49:38.312Z,96395.27
2018-03-06T06:52:09.396Z,96392.91
2018-03-06T06:54:40.195Z,96390.83
2018-03-06T06:57:11.695Z,96392.97
2018-03-06T06:59:43.325Z,96391.09
2018-03-06T07:02:14.840Z,96394.61
2018-03-06T07:04:46.005Z,96401.61
2018-03-06T07:07:17.208Z,96397.47
2018-03-06T07:09:48.641Z,96393.59
2018-03-06T07:12:19.959Z,96393.14
2018-03-06T07:14:51.585Z,96396.31
2018-03-06T07:17:22.443Z,96393.77
2018-03-06T07:19:53.332Z,96402.49
2018-03-06T07:22:24.214Z,96402.33
2018-03-06T07:24:55.495Z,96404.36
2018-03-06T07:27:26.264Z,96401.06
2018-03-06T07:29:57.857Z,96405.72
2018-03-06T07:32:29.040Z,96410.57
2018-03-06T07:35:00.486Z,96411.91
2018-03-06T07:37:32.004Z,96415.70
2018-03-06T07:40:04.604Z,96417.74
2018-03-06T07:42:35.888Z,96413.80
2018-03-06T07:45:07.773Z,96412.59
2018-03-06T07:47:39.016Z,96411.64
2018-03-06T07:50:10.888Z,96413.64
2018-03-06T07:52:43.532Z,96409.75
2018-03-06T07:55:14.872Z,96408.00
2018-03-06T07:57:45.708Z,96410.85
2018-03-06T08:00:17.428Z,96408.86
2018-03-06T08:02:55.377Z,96411.48
2018-03-06T08:05:26.744Z,96407.69
2018-03-06T08:07:58.124Z,96412.19
2018-03-06T08:10:30.084Z,96415.34
2018-03-06T08:13:02.350Z,96411.76
2018-03-06T08:15:33.752Z,96414.97
2018-03-06T08:18:05.811Z,96413.55
2018-03-06T08:20:36.618Z,96409.71
2018-03-06T08:23:08.337Z,96406.94
2018-03-06T08:25:39.086Z,96397.70
2018-03-06T08:28:10.552Z,96399.61
2018-03-06T08:30:41.359Z,96396.66
2018-03-06T08:33:12.974Z,96393.91
2018-03-06T08:35:44.204Z,96398.77
2018-03-06T08:38:15.024Z,96391.84
2018-03-06T08:40:46.632Z,96392.14
2018-03-06T08:43:18.356Z,96384.77
2018-03-06T08:45:49.973Z,96390.36
2018-03-06T08:48:21.115Z,96382.51
2018-03-06T08:50:51.834Z,96378.72
2018-03-06T08:53:23.000Z,96374.42
2018-03-06T08:55:54.494Z,96371.48
2018-03-06T08:58:25.710Z,96374.47
2018-03-06T09:00:57.487Z,96367.81
2018-03-06T09:03:37.450Z,96364.29
2018-03-06T09:06:08.615Z,96373.28
2018-03-06T09:08:39.468Z,96373.09
2018-03-06T09:11:10.899Z,96376.59
2018-03-06T09:13:42.561Z,96373.34
2018-03-06T09:16:13.358Z,96364.64
2018-03-06T09:18:44.141Z,96370.57
2018-03-06T09:21:15.272Z,96367.80
2018-03-06T09:23:46.101Z,96363.84
2018-03-06T09:26:16.847Z,96365.50
2018-03-06T09:28:47.718Z,96367.82
2018-03-06T09:31:19.428Z,96371.41
2018-03-06T09:33:50.302Z,96367.22
2018-03-06T09:36:21.126Z,96366.84
2018-03-06T09:38:52.888Z,96362.14
2018-03-06T09:41:23.956Z,96367.58
2018-03-06T09:43:54.752Z,96364.59
2018-03-06T09:46:25.884Z,96364.97
2018-03-06T09:48:56.773Z,96358.16
2018-03-06T09:51:28.300Z,96356.21
2018-03-06T09:54:00.254Z,96352.67
2018-03-06T09:56:31.572Z,96355.34
2018-03-06T09:59:04.488Z,96353.33
2018-03-06T10:01:35.389Z,96357.83
2018-03-06T10:04:07.432Z,96359.02
2018-03-06T10:06:39.207Z,96352.36
2018-03-06T10:09:09.959Z,96358.02
2018-03-06T10:11:41.176Z,96353.72
2018-03-06T10:14:12.765Z,96354.50
2018-03-06T10:16:43.572Z,96348.47
2018-03-06T10:19:15.052Z,96344.31
2018-03-06T10:21:47.085Z,96345.61
2018-03-06T10:24:17.988Z,96353.05
2018-03-06T10:26:49.754Z,96354.98
2018-03-06T10:29:21.315Z,96349.86
2018-03-06T10:31:52.785Z,96344.33
2018-03-06T10:34:24.436Z,96344.40
2018-03-06T10:36:55.260Z,96349.46
2018-03-06T10:39:26.879Z,96342.77
2018-03-06T10:41:58.115Z,96338.77
2018-03-06T10:44:29.410Z,96342.97
2018-03-06T10:47:00.467Z,96339.81
2018-03-06T10:49:31.913Z,96343.96
2018-03-06T10:52:04.516Z,96347.36
2018-03-06T10:54:36.112Z,96351.64
2018-03-06T10:57:07.300Z,96343.45
2018-03-06T10:59:38.348Z,96340.44
2018-03-06T11:02:13.647Z,96344.13
2018-03-06T11:04:45.097Z,96340.78
2018-03-06T11:07:16.189Z,96349.60
2018-03-06T11:09:48.366Z,96344.86
2018-03-06T11:12:19.484Z,96344.98
2018-03-06T11:14:50.342Z,96356.53
2018-03-06T11:17:21.132Z,96348.47
2018-03-06T11:19:52.216Z,96352.39
2018-03-06T11:22:23.662Z,96344.22
2018-03-06T11:24:54.458Z,96341.78
2018-03-06T11:27:25.480Z,96336.70
2018-03-06T11:29:56.205Z,96343.47
2018-03-06T11:32:26.988Z,96334.24
2018-03-06T11:34:58.107Z,96334.39
2018-03-06T11:37:28.993Z,96326.64
2018-03-06T11:39:59.753Z,96320.84
2018-03-06T11:42:31.636Z,96327.31
2018-03-06T11:45:05.729Z,96326.60
2018-03-06T11:47:37.023Z,96317.90
2018-03-06T11:50:10.592Z,96314.53
2018-03-06T11:52:41.650Z,96315.41
2018-03-06T11:55:12.537Z,96312.56
2018-03-06T11:57:43.373Z,96308.84
2018-03-06T12:00:14.475Z,96311.72
2018-03-06T12:02:45.336Z,96309.77
2018-03-06T12:05:16.077Z,96302.93
2018-03-06T12:07:47.127Z,96304.47
2018-03-06T12:10:18.009Z,96299.42
2018-03-06T12:12:48.873Z,96301.05
2018-03-06T12:15:22.851Z,96302.67
2018-03-06T12:17:53.635Z,96298.64
2018-03-06T12:20:24.758Z,96299.13
2018-03-06T12:22:56.144Z,96292.77
2018-03-06T12:25:26.921Z,96292.64
2018-03-06T12:27:58.092Z,96293.04
2018-03-06T12:30:28.833Z,96286.71
2018-03-06T12:33:00.838Z,96287.50
2018-03-06T12:35:32.060Z,96279.93
2018-03-06T12:38:09.137Z,96287.55
2018-03-06T12:40:40.201Z,96290.39
2018-03-06T12:43:10.992Z,96283.78
2018-03-06T12:45:46.464Z,96285.37
2018-03-06T12:48:17.614Z,96287.50
2018-03-06T12:50:48.392Z,96284.57
2018-03-06T12:53:19.890Z,96279.09
2018-03-06T12:55:51.920Z,96276.91
2018-03-06T12:58:25.645Z,96274.52
2018-03-06T13:00:56.604Z,96267.33
2018-03-06T13:03:27.817Z,96262.63
2018-03-06T13:06:03.544Z,96261.56
2018-03-06T13:08:34.776Z,96260.39
2018-03-06T13:11:06.924Z,96248.75
2018-03-06T13:13:37.844Z,96256.27
2018-03-06T13:16:09.954Z,96255.03
2018-03-06T13:18:40.812Z,96252.38
2018-03-06T13:21:11.804Z,96258.55
2018-03-06T13:23:42.603Z,96252.28
2018-03-06T13:26:14.523Z,96247.36
2018-03-06T13:28:45.620Z,96254.75
2018-03-06T13:31:16.573Z,96250.23
2018-03-06T13:33:47.548Z,96251.75
2018-03-06T13:36:20.452Z,96258.78
2018-03-06T13:38:51.263Z,96263.32
2018-03-06T13:41:22.844Z,96254.81
2018-03-06T13:43:53.853Z,96260.30
2018-03-06T13:47:26.852Z,96263.57
2018-03-06T13:49:58.020Z,96258.88
2018-03-06T13:52:28.907Z,96265.52
2018-03-06T13:55:01.203Z,96271.09
2018-03-06T13:57:32.754Z,96260.84
2018-03-06T14:00:06.330Z,96262.12
2018-03-06T14:02:37.632Z,96262.05
2018-03-06T14:05:08.564Z,96264.70
2018-03-06T14:07:39.342Z,96260.41
2018-03-06T14:10:10.553Z,96268.80
2018-03-06T14:12:41.427Z,96267.08
2018-03-06T14:15:12.321Z,96267.33
2018-03-06T14:17:43.705Z,96253.61
2018-03-06T14:20:14.668Z,96257.34
2018-03-06T14:22:45.568Z,96265.52
2018-03-06T14:25:16.477Z,96262.63
2018-03-06T14:27:48.838Z,96260.36
2018-03-06T14:30:19.649Z,96261.81
2018-03-06T14:32:50.592Z,96264.15
2018-03-06T14:35:22.315Z,96265.84
2018-03-06T14:37:53.152Z,96260.55
2018-03-06T14:40:23.932Z,96261.66
2018-03-06T14:42:54.954Z,96265.70
2018-03-06T14:45:25.896Z,96265.92
2018-03-06T14:47:56.659Z,96262.42
2018-03-06T14:50:27.809Z,96251.68
2018-03-06T14:52:58.856Z,96261.27
2018-03-06T14:55:31.372Z,96258.08
2018-03-06T14:58:04.717Z,96260.28
2018-03-06T15:00:35.717Z,96256.41
2018-03-06T15:03:08.000Z,96259.35
2018-03-06T15:05:40.908Z,96260.63
2018-03-06T15:08:12.118Z,96250.36
2018-03-06T15:10:43.004Z,96255.12
2018-03-06T15:13:14.012Z,96258.59
2018-03-06T15:15:45.458Z,96254.81
2018-03-06T15:18:16.972Z,96253.63
2018-03-06T15:20:48.528Z,96250.95
2018-03-06T15:23:20.342Z,96253.84
2018-03-06T15:25:51.236Z,96255.48
2018-03-06T15:28:23.247Z,96247.98
2018-03-06T15:30:55.337Z,96252.91
2018-03-06T15:33:26.867Z,96250.83
2018-03-06T15:35:57.836Z,96253.89
2018-03-06T15:38:28.921Z,96253.50
2018-03-06T15:41:00.184Z,96257.11
2018-03-06T15:43:31.212Z,96253.36
2018-03-06T15:46:02.179Z,96258.27
2018-03-06T15:48:33.649Z,96255.36
2018-03-06T15:51:06.049Z,96254.70
2018-03-06T15:53:37.673Z,96256.59
2018-03-06T15:56:08.416Z,96258.48
2018-03-06T15:58:39.410Z,96257.60
2018-03-06T16:01:10.903Z,96262.45
2018-03-06T16:03:41.861Z,96258.33
2018-03-06T16:06:12.826Z,96264.69
2018-03-06T16:08:43.812Z,96260.08
2018-03-06T16:11:15.301Z,96264.16
2018-03-06T16:13:46.157Z,96270.63
2018-03-06T16:16:17.006Z,96268.94
2018-03-06T16:18:48.244Z,96270.72
2018-03-06T16:21:19.252Z,96270.52
2018-03-06T16:23:50.136Z,96275.08
2018-03-06T16:26:21.596Z,96272.89
2018-03-06T16:28:53.060Z,96277.64
2018-03-06T16:31:24.056Z,96279.57
2018-03-06T16:33:55.232Z,96280.27
2018-03-06T16:36:26.218Z,96286.91
2018-03-06T16:38:58.290Z,96283.91
2018-03-06T16:41:32.332Z,96285.69
2018-03-06T16:44:05.077Z,96287.09
2018-03-06T16:46:36.370Z,96293.77
2018-03-06T16:49:07.136Z,96290.88
2018-03-06T16:51:37.989Z,96293.88
2018-03-06T16:54:09.262Z,96293.44
2018-03-06T16:56:39.291Z,96290.77
2018-03-06T16:59:13.887Z,96293.11
2018-03-06T17:01:45.320Z,96298.51
2018-03-06T17:04:17.045Z,96297.05
2018-03-06T17:06:48.136Z,96297.34
2018-03-06T17:09:19.421Z,96305.23
2018-03-06T17:11:50.529Z,96309.81
2018-03-06T17:14:22.845Z,96308.91
2018-03-06T17:16:55.096Z,96316.20
2018-03-06T17:19:26.942Z,96315.75
2018-03-06T17:21:58.016Z,96316.91
2018-03-06T17:24:29.237Z,96315.19
2018-03-06T17:27:00.772Z,96322.61
2018-03-06T17:29:33.536Z,96320.08
2018-03-06T17:32:05.223Z,96322.28
2018-03-06T17:34:36.173Z,96326.20
2018-03-06T17:37:07.029Z,96331.04
2018-03-06T17:39:38.299Z,96326.48
2018-03-06T17:42:09.148Z,96334.27
2018-03-06T17:44:40.129Z,96333.84
2018-03-06T17:47:11.364Z,96327.13
2018-03-06T17:49:42.925Z,96321.92
2018-03-06T17:52:13.833Z,96330.44
2018-03-06T17:54:55.204Z,96326.40
2018-03-06T17:57:26.074Z,96326.35
2018-03-06T17:59:57.262Z,96340.03
2018-03-06T18:02:28.185Z,96335.84
2018-03-06T18:04:59.945Z,96336.15
2018-03-06T18:07:31.145Z,96342.25
2018-03-06T18:10:02.019Z,96335.83
2018-03-06T18:12:32.900Z,96336.96
2018-03-06T18:15:04.074Z,96331.48
2018-03-06T18:17:34.962Z,96340.02
2018-03-06T18:20:09.529Z,96342.00
2018-03-06T18:22:40.321Z,96335.96
2018-03-06T18:25:11.310Z,96338.03
2018-03-06T18:27:44.120Z,96333.59
2018-03-06T18:30:15.025Z,96333.27
2018-03-06T18:32:47.048Z,96330.84
2018-03-06T18:35:18.152Z,96336.55
2018-03-06T18:37:49.044Z,96330.62
2018-03-06T18:40:20.111Z,96325.05
2018-03-06T18:42:51.277Z,96327.17
2018-03-06T18:45:22.324Z,96328.19
2018-03-06T18:47:53.325Z,96331.88
2018-03-06T18:50:33.095Z,96332.40
2018-03-06T18:53:05.069Z,96331.66
2018-03-06T18:55:36.401Z,96321.33
2018-03-06T18:58:07.846Z,96329.36
2018-03-06T19:00:47.953Z,96326.41
2018-03-06T19:05:30.812Z,96319.17
2018-03-06T19:08:03.224Z,96333.27
2018-03-06T19:10:34.575Z,96323.38
2018-03-06T19:13:07.230Z,96320.98
2018-03-06T19:15:38.288Z,96320.09
2018-03-06T19:18:10.316Z,96311.64
2018-03-06T19:20:41.117Z,96315.53
2018-03-06T19:23:12.057Z,96312.06
2018-03-06T19:25:45.141Z,96318.22
2018-03-06T19:28:16.177Z,96323.13
2018-03-06T19:30:47.398Z,96319.20
2018-03-06T19:33:18.411Z,96311.00
2018-03-06T19:35:49.369Z,96311.54
2018-03-06T19:38:20.457Z,96318.13
2018-03-06T19:40:51.862Z,96315.75
2018-03-06T19:43:22.956Z,96316.42
2018-03-06T19:45:54.101Z,96318.53
2018-03-06T19:48:24.917Z,96311.63
2018-03-06T19:50:55.860Z,96317.13
2018-03-06T19:53:27.045Z,96313.30
2018-03-06T19:55:58.061Z,96308.10
2018-03-06T19:58:29.319Z,96311.89
2018-03-06T20:01:00.423Z,96305.72
2018-03-06T20:03:31.329Z,96305.70
2018-03-06T20:06:02.649Z,96305.48
2018-03-06T20:08:33.500Z,96308.34
2018-03-06T20:11:04.295Z,96306.33
2018-03-06T20:13:35.465Z,96304.80
2018-03-06T20:16:06.757Z,96306.38
2018-03-06T20:18:37.555Z,96313.03
2018-03-06T20:21:08.702Z,96317.88
2018-03-06T20:23:39.574Z,96318.79
2018-03-06T20:26:10.549Z,96313.01
2018-03-06T20:28:41.789Z,96315.81
2018-03-06T20:31:16.420Z,96313.36
2018-03-06T20:33:47.166Z,96315.28
2018-03-06T20:36:23.683Z,96313.39
2018-03-06T20:41:06.701Z,96316.83
2018-03-06T20:43:37.876Z,96310.44
2018-03-06T20:46:12.540Z,96319.33
2018-03-06T20:48:43.576Z,96317.71
2018-03-06T20:51:14.397Z,96324.95
2018-03-06T20:56:12.938Z,96317.05
2018-03-06T20:58:43.804Z,96316.30
2018-03-06T21:01:14.881Z,96313.81
2018-03-06T21:03:45.730Z,96313.56
2018-03-06T21:06:16.679Z,96310.36
2018-03-06T21:08:48.298Z,96315.78
2018-03-06T21:11:19.112Z,96317.13
2018-03-06T21:13:49.876Z,96310.01
2018-03-06T21:16:21.920Z,96306.06
2018-03-06T21:18:53.921Z,96301.83
2018-03-06T21:21:24.820Z,96297.52
2018-03-06T21:23:56.440Z,96300.41
2018-03-06T21:26:27.605Z,96303.66
2018-03-06T21:28:59.157Z,96300.66
2018-03-06T21:31:30.042Z,96304.80
2018-03-06T21:34:01.384Z,96301.65
2018-03-06T21:36:32.479Z,96306.95
2018-03-06T21:39:03.417Z,96301.08
2018-03-06T21:41:34.730Z,96294.92
2018-03-06T21:44:05.958Z,96306.89
2018-03-06T21:46:36.809Z,96303.35
2018-03-06T21:49:07.621Z,96306.39
2018-03-06T21:51:38.794Z,96305.02
2018-03-06T21:54:09.610Z,96302.20
2018-03-06T21:56:40.756Z,96301.67
2018-03-06T21:59:11.513Z,96307.91
2018-03-06T22:01:42.317Z,96303.31
2018-03-06T22:04:18.068Z,96303.50
2018-03-06T22:06:50.225Z,96306.28
2018-03-06T22:09:21.926Z,96307.55
2018-03-06T22:11:52.724Z,96315.16
2018-03-06T22:14:25.651Z,96306.04
2018-03-06T22:16:56.841Z,96309.23
2018-03-06T22:19:29.447Z,96314.52
2018-03-06T22:22:00.372Z,96308.88
2018-03-06T22:24:31.542Z,96306.43
2018-03-06T22:27:03.045Z,96306.71
2018-03-06T22:29:34.182Z,96307.33
2018-03-06T22:32:04.976Z,96304.18
2018-03-06T22:34:38.891Z,96307.50
2018-03-06T22:37:10.029Z,96309.34
2018-03-06T22:39:41.444Z,96305.19
2018-03-06T22:42:12.252Z,96300.41
2018-03-06T22:44:44.045Z,96302.70
2018-03-06T22:47:15.328Z,96316.94
2018-03-06T22:49:49.373Z,96307.79
2018-03-06T22:52:20.197Z,96314.00
2018-03-06T22:54:51.044Z,96312.63
2018-03-06T22:57:23.085Z,96307.34
2018-03-06T22:59:53.954Z,96315.77
2018-03-06T23:02:24.863Z,96312.69
2018-03-06T23:04:55.922Z,96309.85
2018-03-06T23:07:26.701Z,96315.73
2018-03-06T23:09:58.022Z,96309.67
2018-03-06T23:12:32.841Z,96319.74
2018-03-06T23:15:17.620Z,96318.36
2018-03-06T23:17:51.019Z,96326.67
2018-03-06T23:20:24.397Z,96328.39
2018-03-06T23:23:00.680Z,96325.36
2018-03-06T23:25:33.715Z,96323.45
2018-03-06T23:28:09.124Z,96322.44
2018-03-06T23:30:42.700Z,96331.47
2018-03-06T23:33:15.322Z,96331.11
2018-03-06T23:35:48.280Z,96329.27
2018-03-06T23:38:22.131Z,96331.32
2018-03-06T23:40:57.693Z,96329.22
2018-03-06T23:43:31.775Z,96328.03
2018-03-06T23:46:12.881Z,96329.03
2018-03-06T23:48:46.226Z,96326.55
2018-03-06T23:51:18.616Z,96327.78
2018-03-06T23:53:50.606Z,96325.58
2018-03-06T23:56:27.024Z,96328.91
2018-03-06T23:59:02.084Z,96334.45
